Main page
Satellite images 15-day forecastsClimateMarine weather Cyclones Lightning AirportsFAQ Newsletter About
Weather : Europe Africa North America South America Asia Australia-Oceania Others
Languages Contact

Rovaniemi, Finland

latitude: 66-34N, longitude: 025-50E, elevation: 197 m


METAR: EFRO 222320Z AUTO 13006KT CAVOK M09/M10 Q1031
TAF: EFRO 222332Z 2300/2324 16006KT CAVOK TEMPO 2308/2312 BKN012

Time: 02:50 (23:50 UTC)

Current weather observation

The report was made 30 minutes ago, at 23:20 UTC
Wind 6 kt from the Southeast
Temperature -9°C
Humidity 92%
Pressure 1031 hPa
Visibility 10 km or more
no clouds below 1500 m and no cumulonimbus

Change units

Forecast

The report was made 18 minutes ago, at 23:32 UTC
Forecast valid from 23 at 00 UTC to 23 at 24 UTC
Wind 6 kt from the South/Southeast
Visibility 10 km or more
no clouds below 1500 m and no cumulonimbus
Temporary
from 23 at 08 UTC to 23 at 12 UTC
Broken clouds at a height of 1200 ft
The information on this site is subject to a disclaimer
Weather : Europe Africa North America South America Asia Australia-Oceania Others
Satellite images 15-day forecastsClimateMarine weather Cyclones Lightning AirportsFAQ Languages Contact Newsletter About